sensor_id;sensor_type;location;lat;lon;timestamp;P1;durP1;ratioP1;P2;durP2;ratioP2
17441;SDS011;8838;50.144;8.176;2023-04-25T00:01:38;10.30;;;7.23;;
17441;SDS011;8838;50.144;8.176;2023-04-25T00:04:05;11.30;;;7.43;;
17441;SDS011;8838;50.144;8.176;2023-04-25T00:06:33;10.80;;;8.00;;
17441;SDS011;8838;50.144;8.176;2023-04-25T00:09:02;10.27;;;8.10;;
17441;SDS011;8838;50.144;8.176;2023-04-25T00:11:32;12.07;;;8.30;;
17441;SDS011;8838;50.144;8.176;2023-04-25T00:13:59;13.47;;;9.07;;
17441;SDS011;8838;50.144;8.176;2023-04-25T00:16:26;11.73;;;8.47;;
17441;SDS011;8838;50.144;8.176;2023-04-25T00:18:53;11.03;;;8.67;;
17441;SDS011;8838;50.144;8.176;2023-04-25T00:21:20;13.33;;;9.00;;
17441;SDS011;8838;50.144;8.176;2023-04-25T00:23:49;13.43;;;8.83;;
17441;SDS011;8838;50.144;8.176;2023-04-25T00:26:18;11.93;;;8.60;;
17441;SDS011;8838;50.144;8.176;2023-04-25T00:28:46;12.30;;;8.67;;
17441;SDS011;8838;50.144;8.176;2023-04-25T00:31:12;11.90;;;8.67;;
17441;SDS011;8838;50.144;8.176;2023-04-25T00:33:39;12.73;;;8.70;;
17441;SDS011;8838;50.144;8.176;2023-04-25T00:36:07;10.63;;;8.23;;
17441;SDS011;8838;50.144;8.176;2023-04-25T00:38:34;12.37;;;8.40;;
17441;SDS011;8838;50.144;8.176;2023-04-25T00:41:03;10.77;;;8.17;;
17441;SDS011;8838;50.144;8.176;2023-04-25T00:43:33;11.53;;;8.40;;
17441;SDS011;8838;50.144;8.176;2023-04-25T00:46:00;11.67;;;8.67;;
17441;SDS011;8838;50.144;8.176;2023-04-25T00:48:27;11.70;;;8.50;;
17441;SDS011;8838;50.144;8.176;2023-04-25T00:50:54;10.60;;;8.60;;
17441;SDS011;8838;50.144;8.176;2023-04-25T00:53:25;13.00;;;8.57;;
17441;SDS011;8838;50.144;8.176;2023-04-25T00:55:53;10.37;;;8.03;;
17441;SDS011;8838;50.144;8.176;2023-04-25T00:58:21;12.33;;;8.73;;
17441;SDS011;8838;50.144;8.176;2023-04-25T01:00:50;9.30;;;8.27;;
17441;SDS011;8838;50.144;8.176;2023-04-25T01:03:18;10.17;;;7.73;;
17441;SDS011;8838;50.144;8.176;2023-04-25T01:05:46;10.50;;;7.60;;
17441;SDS011;8838;50.144;8.176;2023-04-25T01:08:13;10.43;;;8.03;;
17441;SDS011;8838;50.144;8.176;2023-04-25T01:10:40;13.53;;;9.00;;
17441;SDS011;8838;50.144;8.176;2023-04-25T01:13:07;13.53;;;9.10;;
17441;SDS011;8838;50.144;8.176;2023-04-25T01:15:34;13.73;;;9.80;;
17441;SDS011;8838;50.144;8.176;2023-04-25T01:18:03;13.40;;;9.57;;
17441;SDS011;8838;50.144;8.176;2023-04-25T01:20:31;14.80;;;10.03;;
17441;SDS011;8838;50.144;8.176;2023-04-25T01:23:00;16.97;;;10.10;;
17441;SDS011;8838;50.144;8.176;2023-04-25T01:25:28;15.33;;;11.07;;
17441;SDS011;8838;50.144;8.176;2023-04-25T01:27:55;15.10;;;10.30;;
17441;SDS011;8838;50.144;8.176;2023-04-25T01:30:23;15.87;;;10.37;;
17441;SDS011;8838;50.144;8.176;2023-04-25T01:32:51;16.77;;;10.50;;
17441;SDS011;8838;50.144;8.176;2023-04-25T01:35:20;16.13;;;10.03;;
17441;SDS011;8838;50.144;8.176;2023-04-25T01:37:48;15.77;;;9.93;;
17441;SDS011;8838;50.144;8.176;2023-04-25T01:40:17;14.43;;;9.87;;
17441;SDS011;8838;50.144;8.176;2023-04-25T01:42:44;14.00;;;9.83;;
17441;SDS011;8838;50.144;8.176;2023-04-25T01:45:11;15.00;;;9.83;;
17441;SDS011;8838;50.144;8.176;2023-04-25T01:47:39;18.10;;;10.27;;
17441;SDS011;8838;50.144;8.176;2023-04-25T01:50:08;15.13;;;9.93;;
17441;SDS011;8838;50.144;8.176;2023-04-25T01:52:36;15.17;;;9.50;;
17441;SDS011;8838;50.144;8.176;2023-04-25T01:55:03;16.73;;;9.70;;
17441;SDS011;8838;50.144;8.176;2023-04-25T01:57:31;14.83;;;9.57;;
17441;SDS011;8838;50.144;8.176;2023-04-25T01:59:59;15.73;;;9.93;;
17441;SDS011;8838;50.144;8.176;2023-04-25T02:02:27;18.27;;;9.87;;
17441;SDS011;8838;50.144;8.176;2023-04-25T02:04:54;15.87;;;9.63;;
17441;SDS011;8838;50.144;8.176;2023-04-25T02:07:21;17.47;;;9.47;;
17441;SDS011;8838;50.144;8.176;2023-04-25T02:09:48;16.00;;;10.50;;
17441;SDS011;8838;50.144;8.176;2023-04-25T02:12:14;16.50;;;10.30;;
17441;SDS011;8838;50.144;8.176;2023-04-25T02:14:43;13.70;;;9.80;;
17441;SDS011;8838;50.144;8.176;2023-04-25T02:17:10;16.07;;;10.53;;
17441;SDS011;8838;50.144;8.176;2023-04-25T02:19:37;18.70;;;10.87;;
17441;SDS011;8838;50.144;8.176;2023-04-25T02:22:04;14.77;;;9.93;;
17441;SDS011;8838;50.144;8.176;2023-04-25T02:24:31;16.50;;;11.23;;
17441;SDS011;8838;50.144;8.176;2023-04-25T02:26:58;17.80;;;11.10;;
17441;SDS011;8838;50.144;8.176;2023-04-25T02:29:25;17.63;;;10.90;;
17441;SDS011;8838;50.144;8.176;2023-04-25T02:31:53;19.20;;;11.43;;
17441;SDS011;8838;50.144;8.176;2023-04-25T02:34:20;15.77;;;11.03;;
17441;SDS011;8838;50.144;8.176;2023-04-25T02:36:47;18.07;;;10.93;;
17441;SDS011;8838;50.144;8.176;2023-04-25T02:39:15;22.03;;;11.17;;
17441;SDS011;8838;50.144;8.176;2023-04-25T02:41:42;21.07;;;11.63;;
17441;SDS011;8838;50.144;8.176;2023-04-25T02:44:09;22.33;;;11.70;;
17441;SDS011;8838;50.144;8.176;2023-04-25T02:46:36;18.77;;;12.03;;
17441;SDS011;8838;50.144;8.176;2023-04-25T02:49:04;21.13;;;12.03;;
17441;SDS011;8838;50.144;8.176;2023-04-25T02:51:31;19.10;;;12.13;;
17441;SDS011;8838;50.144;8.176;2023-04-25T02:53:57;19.00;;;12.33;;
17441;SDS011;8838;50.144;8.176;2023-04-25T02:56:24;22.90;;;12.90;;
17441;SDS011;8838;50.144;8.176;2023-04-25T02:58:52;20.17;;;11.83;;
17441;SDS011;8838;50.144;8.176;2023-04-25T03:01:19;22.50;;;12.47;;
17441;SDS011;8838;50.144;8.176;2023-04-25T03:03:46;23.40;;;13.53;;
17441;SDS011;8838;50.144;8.176;2023-04-25T03:06:14;21.03;;;12.87;;
17441;SDS011;8838;50.144;8.176;2023-04-25T03:08:41;21.40;;;13.47;;
17441;SDS011;8838;50.144;8.176;2023-04-25T03:11:07;23.67;;;12.90;;
17441;SDS011;8838;50.144;8.176;2023-04-25T03:13:34;18.47;;;12.27;;
17441;SDS011;8838;50.144;8.176;2023-04-25T03:16:01;21.23;;;12.67;;
17441;SDS011;8838;50.144;8.176;2023-04-25T03:18:28;18.07;;;11.97;;
17441;SDS011;8838;50.144;8.176;2023-04-25T03:20:55;23.80;;;12.70;;
17441;SDS011;8838;50.144;8.176;2023-04-25T03:23:23;21.67;;;12.17;;
17441;SDS011;8838;50.144;8.176;2023-04-25T03:25:51;25.73;;;13.13;;
17441;SDS011;8838;50.144;8.176;2023-04-25T03:28:17;21.37;;;12.27;;
17441;SDS011;8838;50.144;8.176;2023-04-25T03:30:44;21.37;;;12.40;;
17441;SDS011;8838;50.144;8.176;2023-04-25T03:33:11;26.87;;;12.67;;
17441;SDS011;8838;50.144;8.176;2023-04-25T03:35:38;17.97;;;11.40;;
17441;SDS011;8838;50.144;8.176;2023-04-25T03:38:05;21.03;;;11.93;;
17441;SDS011;8838;50.144;8.176;2023-04-25T03:40:33;22.53;;;11.77;;
17441;SDS011;8838;50.144;8.176;2023-04-25T03:43:00;21.47;;;11.93;;
17441;SDS011;8838;50.144;8.176;2023-04-25T03:45:26;25.60;;;11.37;;
17441;SDS011;8838;50.144;8.176;2023-04-25T03:47:53;18.57;;;11.30;;
17441;SDS011;8838;50.144;8.176;2023-04-25T03:50:20;21.57;;;11.57;;
17441;SDS011;8838;50.144;8.176;2023-04-25T03:52:47;23.73;;;11.30;;
17441;SDS011;8838;50.144;8.176;2023-04-25T03:55:14;27.37;;;11.33;;
17441;SDS011;8838;50.144;8.176;2023-04-25T03:57:42;25.53;;;11.20;;
17441;SDS011;8838;50.144;8.176;2023-04-25T04:00:09;21.33;;;10.90;;
17441;SDS011;8838;50.144;8.176;2023-04-25T04:02:36;23.13;;;10.37;;
17441;SDS011;8838;50.144;8.176;2023-04-25T04:05:04;17.97;;;9.53;;
17441;SDS011;8838;50.144;8.176;2023-04-25T04:07:31;20.47;;;9.07;;
17441;SDS011;8838;50.144;8.176;2023-04-25T04:10:01;23.53;;;9.60;;
17441;SDS011;8838;50.144;8.176;2023-04-25T04:12:30;20.60;;;8.83;;
17441;SDS011;8838;50.144;8.176;2023-04-25T04:14:58;20.37;;;9.10;;
17441;SDS011;8838;50.144;8.176;2023-04-25T04:17:25;17.23;;;9.03;;
17441;SDS011;8838;50.144;8.176;2023-04-25T04:19:51;26.43;;;9.40;;
17441;SDS011;8838;50.144;8.176;2023-04-25T04:22:18;23.67;;;9.43;;
17441;SDS011;8838;50.144;8.176;2023-04-25T04:24:45;23.10;;;9.63;;
17441;SDS011;8838;50.144;8.176;2023-04-25T04:27:12;27.07;;;9.53;;
17441;SDS011;8838;50.144;8.176;2023-04-25T04:29:39;21.93;;;9.47;;
17441;SDS011;8838;50.144;8.176;2023-04-25T04:32:07;21.83;;;10.10;;
17441;SDS011;8838;50.144;8.176;2023-04-25T04:34:34;25.43;;;10.60;;
17441;SDS011;8838;50.144;8.176;2023-04-25T04:37:01;24.57;;;9.93;;
17441;SDS011;8838;50.144;8.176;2023-04-25T04:39:28;21.83;;;9.23;;
17441;SDS011;8838;50.144;8.176;2023-04-25T04:41:55;27.33;;;9.90;;
17441;SDS011;8838;50.144;8.176;2023-04-25T04:44:22;25.83;;;9.77;;
17441;SDS011;8838;50.144;8.176;2023-04-25T04:46:48;21.77;;;9.97;;
17441;SDS011;8838;50.144;8.176;2023-04-25T04:49:17;25.20;;;9.47;;
17441;SDS011;8838;50.144;8.176;2023-04-25T04:51:44;27.93;;;10.17;;
17441;SDS011;8838;50.144;8.176;2023-04-25T04:54:10;19.60;;;10.10;;
17441;SDS011;8838;50.144;8.176;2023-04-25T04:56:37;21.40;;;10.10;;
17441;SDS011;8838;50.144;8.176;2023-04-25T04:59:05;28.47;;;11.37;;
17441;SDS011;8838;50.144;8.176;2023-04-25T05:01:35;25.00;;;10.23;;
17441;SDS011;8838;50.144;8.176;2023-04-25T05:04:02;23.27;;;9.47;;
17441;SDS011;8838;50.144;8.176;2023-04-25T05:06:30;22.67;;;9.03;;
17441;SDS011;8838;50.144;8.176;2023-04-25T05:09:00;25.77;;;9.80;;
17441;SDS011;8838;50.144;8.176;2023-04-25T05:11:27;27.30;;;9.50;;
17441;SDS011;8838;50.144;8.176;2023-04-25T05:13:54;21.43;;;8.80;;
17441;SDS011;8838;50.144;8.176;2023-04-25T05:16:21;17.77;;;8.60;;
17441;SDS011;8838;50.144;8.176;2023-04-25T05:18:48;20.60;;;9.33;;
17441;SDS011;8838;50.144;8.176;2023-04-25T05:21:15;20.97;;;9.67;;
17441;SDS011;8838;50.144;8.176;2023-04-25T05:23:43;25.77;;;9.67;;
17441;SDS011;8838;50.144;8.176;2023-04-25T05:26:10;21.43;;;9.07;;
17441;SDS011;8838;50.144;8.176;2023-04-25T05:28:40;24.30;;;8.63;;
17441;SDS011;8838;50.144;8.176;2023-04-25T05:31:07;22.03;;;8.87;;
17441;SDS011;8838;50.144;8.176;2023-04-25T05:33:35;27.50;;;8.60;;
17441;SDS011;8838;50.144;8.176;2023-04-25T05:36:02;20.67;;;8.10;;
17441;SDS011;8838;50.144;8.176;2023-04-25T05:38:29;19.63;;;7.90;;
17441;SDS011;8838;50.144;8.176;2023-04-25T05:41:00;22.63;;;8.33;;
17441;SDS011;8838;50.144;8.176;2023-04-25T05:43:27;17.20;;;8.00;;
17441;SDS011;8838;50.144;8.176;2023-04-25T05:45:54;22.03;;;8.20;;
17441;SDS011;8838;50.144;8.176;2023-04-25T05:48:21;23.07;;;8.50;;
17441;SDS011;8838;50.144;8.176;2023-04-25T05:50:48;22.20;;;7.77;;
17441;SDS011;8838;50.144;8.176;2023-04-25T05:53:16;19.70;;;8.23;;
17441;SDS011;8838;50.144;8.176;2023-04-25T05:55:43;21.13;;;8.60;;
17441;SDS011;8838;50.144;8.176;2023-04-25T05:58:11;21.57;;;8.20;;
17441;SDS011;8838;50.144;8.176;2023-04-25T06:00:38;15.43;;;7.90;;
17441;SDS011;8838;50.144;8.176;2023-04-25T06:03:06;20.43;;;7.77;;
17441;SDS011;8838;50.144;8.176;2023-04-25T06:05:34;17.63;;;7.80;;
17441;SDS011;8838;50.144;8.176;2023-04-25T06:08:01;18.50;;;8.50;;
17441;SDS011;8838;50.144;8.176;2023-04-25T06:10:28;19.97;;;7.90;;
17441;SDS011;8838;50.144;8.176;2023-04-25T06:12:55;19.57;;;7.80;;
17441;SDS011;8838;50.144;8.176;2023-04-25T06:15:23;15.23;;;7.10;;
17441;SDS011;8838;50.144;8.176;2023-04-25T06:17:50;17.83;;;7.33;;
17441;SDS011;8838;50.144;8.176;2023-04-25T06:20:17;21.53;;;7.80;;
17441;SDS011;8838;50.144;8.176;2023-04-25T06:22:48;21.93;;;8.10;;
17441;SDS011;8838;50.144;8.176;2023-04-25T06:25:15;14.27;;;7.53;;
17441;SDS011;8838;50.144;8.176;2023-04-25T06:27:42;17.30;;;7.20;;
17441;SDS011;8838;50.144;8.176;2023-04-25T06:30:09;18.93;;;7.10;;
17441;SDS011;8838;50.144;8.176;2023-04-25T06:32:38;19.37;;;6.93;;
17441;SDS011;8838;50.144;8.176;2023-04-25T06:35:05;16.70;;;6.77;;
17441;SDS011;8838;50.144;8.176;2023-04-25T06:37:33;15.47;;;6.83;;
17441;SDS011;8838;50.144;8.176;2023-04-25T06:39:59;18.47;;;6.40;;
17441;SDS011;8838;50.144;8.176;2023-04-25T06:42:27;21.20;;;6.70;;
17441;SDS011;8838;50.144;8.176;2023-04-25T06:44:54;17.23;;;6.17;;
17441;SDS011;8838;50.144;8.176;2023-04-25T06:47:21;12.37;;;6.10;;
17441;SDS011;8838;50.144;8.176;2023-04-25T06:49:49;14.57;;;6.03;;
17441;SDS011;8838;50.144;8.176;2023-04-25T06:52:16;17.30;;;6.70;;
17441;SDS011;8838;50.144;8.176;2023-04-25T06:54:43;15.23;;;6.03;;
17441;SDS011;8838;50.144;8.176;2023-04-25T06:57:10;18.27;;;6.63;;
17441;SDS011;8838;50.144;8.176;2023-04-25T06:59:37;16.77;;;6.70;;
17441;SDS011;8838;50.144;8.176;2023-04-25T07:02:04;15.13;;;7.13;;
17441;SDS011;8838;50.144;8.176;2023-04-25T07:04:31;15.70;;;5.90;;
17441;SDS011;8838;50.144;8.176;2023-04-25T07:06:59;16.47;;;6.00;;
17441;SDS011;8838;50.144;8.176;2023-04-25T07:09:27;15.30;;;5.43;;
17441;SDS011;8838;50.144;8.176;2023-04-25T07:11:54;12.63;;;5.03;;
17441;SDS011;8838;50.144;8.176;2023-04-25T07:14:21;12.00;;;5.23;;
17441;SDS011;8838;50.144;8.176;2023-04-25T07:16:48;12.27;;;4.70;;
17441;SDS011;8838;50.144;8.176;2023-04-25T07:19:15;15.60;;;5.33;;
17441;SDS011;8838;50.144;8.176;2023-04-25T07:21:42;10.87;;;4.13;;
17441;SDS011;8838;50.144;8.176;2023-04-25T07:24:10;8.83;;;3.90;;
17441;SDS011;8838;50.144;8.176;2023-04-25T07:26:36;10.87;;;4.50;;
17441;SDS011;8838;50.144;8.176;2023-04-25T07:29:04;11.67;;;3.87;;
17441;SDS011;8838;50.144;8.176;2023-04-25T07:31:31;8.43;;;4.43;;
17441;SDS011;8838;50.144;8.176;2023-04-25T07:33:57;7.23;;;3.50;;
17441;SDS011;8838;50.144;8.176;2023-04-25T07:36:24;7.10;;;3.80;;
17441;SDS011;8838;50.144;8.176;2023-04-25T07:38:52;7.83;;;4.00;;
17441;SDS011;8838;50.144;8.176;2023-04-25T07:41:20;9.73;;;3.67;;
17441;SDS011;8838;50.144;8.176;2023-04-25T07:43:47;10.77;;;3.50;;
17441;SDS011;8838;50.144;8.176;2023-04-25T07:46:14;7.53;;;3.10;;
17441;SDS011;8838;50.144;8.176;2023-04-25T07:48:40;10.23;;;3.50;;
17441;SDS011;8838;50.144;8.176;2023-04-25T07:51:07;7.47;;;3.17;;
17441;SDS011;8838;50.144;8.176;2023-04-25T07:53:34;10.17;;;3.93;;
17441;SDS011;8838;50.144;8.176;2023-04-25T07:56:02;8.60;;;3.40;;
17441;SDS011;8838;50.144;8.176;2023-04-25T07:58:31;6.00;;;2.90;;
17441;SDS011;8838;50.144;8.176;2023-04-25T08:00:57;5.77;;;2.73;;
17441;SDS011;8838;50.144;8.176;2023-04-25T08:03:25;8.27;;;2.90;;
17441;SDS011;8838;50.144;8.176;2023-04-25T08:05:51;7.83;;;3.00;;
17441;SDS011;8838;50.144;8.176;2023-04-25T08:08:18;10.40;;;3.60;;
17441;SDS011;8838;50.144;8.176;2023-04-25T08:10:45;10.57;;;4.10;;
17441;SDS011;8838;50.144;8.176;2023-04-25T08:13:13;5.80;;;3.33;;
17441;SDS011;8838;50.144;8.176;2023-04-25T08:15:42;10.27;;;4.23;;
17441;SDS011;8838;50.144;8.176;2023-04-25T08:18:09;8.33;;;4.33;;
17441;SDS011;8838;50.144;8.176;2023-04-25T08:20:36;9.23;;;4.47;;
17441;SDS011;8838;50.144;8.176;2023-04-25T08:23:03;11.47;;;4.67;;
17441;SDS011;8838;50.144;8.176;2023-04-25T08:25:30;14.80;;;5.07;;
17441;SDS011;8838;50.144;8.176;2023-04-25T08:27:57;12.63;;;4.80;;
17441;SDS011;8838;50.144;8.176;2023-04-25T08:30:24;15.50;;;5.33;;
17441;SDS011;8838;50.144;8.176;2023-04-25T08:32:53;9.20;;;4.80;;
17441;SDS011;8838;50.144;8.176;2023-04-25T08:35:20;12.13;;;5.20;;
17441;SDS011;8838;50.144;8.176;2023-04-25T08:37:47;14.37;;;4.80;;
17441;SDS011;8838;50.144;8.176;2023-04-25T08:40:15;12.73;;;4.60;;
17441;SDS011;8838;50.144;8.176;2023-04-25T08:42:42;10.63;;;4.60;;
17441;SDS011;8838;50.144;8.176;2023-04-25T08:45:09;7.73;;;4.37;;
17441;SDS011;8838;50.144;8.176;2023-04-25T08:47:37;9.03;;;5.00;;
17441;SDS011;8838;50.144;8.176;2023-04-25T08:50:06;11.73;;;4.87;;
17441;SDS011;8838;50.144;8.176;2023-04-25T08:52:35;10.17;;;4.80;;
17441;SDS011;8838;50.144;8.176;2023-04-25T08:55:04;17.20;;;5.23;;
17441;SDS011;8838;50.144;8.176;2023-04-25T08:57:33;9.63;;;4.47;;
17441;SDS011;8838;50.144;8.176;2023-04-25T09:00:00;12.17;;;5.10;;
17441;SDS011;8838;50.144;8.176;2023-04-25T09:02:28;9.60;;;5.30;;
17441;SDS011;8838;50.144;8.176;2023-04-25T09:04:55;11.93;;;4.73;;
17441;SDS011;8838;50.144;8.176;2023-04-25T09:07:24;9.67;;;4.50;;
17441;SDS011;8838;50.144;8.176;2023-04-25T09:09:51;9.60;;;4.77;;
17441;SDS011;8838;50.144;8.176;2023-04-25T09:12:18;7.83;;;4.80;;
17441;SDS011;8838;50.144;8.176;2023-04-25T09:15:01;10.77;;;5.43;;
17441;SDS011;8838;50.144;8.176;2023-04-25T09:17:30;12.30;;;5.57;;
17441;SDS011;8838;50.144;8.176;2023-04-25T09:20:05;10.63;;;5.37;;
17441;SDS011;8838;50.144;8.176;2023-04-25T09:22:35;14.43;;;6.10;;
17441;SDS011;8838;50.144;8.176;2023-04-25T09:25:04;11.07;;;6.03;;
17441;SDS011;8838;50.144;8.176;2023-04-25T09:27:34;13.77;;;6.43;;
17441;SDS011;8838;50.144;8.176;2023-04-25T09:30:02;9.73;;;5.97;;
17441;SDS011;8838;50.144;8.176;2023-04-25T09:32:29;13.70;;;6.53;;
17441;SDS011;8838;50.144;8.176;2023-04-25T09:34:57;15.47;;;7.10;;
17441;SDS011;8838;50.144;8.176;2023-04-25T09:37:24;15.47;;;7.13;;
17441;SDS011;8838;50.144;8.176;2023-04-25T09:39:55;16.90;;;7.30;;
17441;SDS011;8838;50.144;8.176;2023-04-25T09:42:24;15.50;;;7.57;;
17441;SDS011;8838;50.144;8.176;2023-04-25T09:44:52;17.27;;;6.90;;
17441;SDS011;8838;50.144;8.176;2023-04-25T09:47:20;13.83;;;6.20;;
17441;SDS011;8838;50.144;8.176;2023-04-25T09:49:49;10.30;;;6.00;;
17441;SDS011;8838;50.144;8.176;2023-04-25T09:52:17;10.87;;;5.80;;
17441;SDS011;8838;50.144;8.176;2023-04-25T09:54:45;11.47;;;5.57;;
17441;SDS011;8838;50.144;8.176;2023-04-25T09:57:15;11.33;;;5.37;;
17441;SDS011;8838;50.144;8.176;2023-04-25T09:59:43;11.87;;;5.40;;
17441;SDS011;8838;50.144;8.176;2023-04-25T10:02:11;12.70;;;5.63;;
17441;SDS011;8838;50.144;8.176;2023-04-25T10:04:39;13.20;;;5.60;;
17441;SDS011;8838;50.144;8.176;2023-04-25T10:07:08;9.35;;;4.18;;
17441;SDS011;8838;50.144;8.176;2023-04-25T10:09:36;11.13;;;5.13;;
17441;SDS011;8838;50.144;8.176;2023-04-25T10:12:06;11.25;;;4.47;;
17441;SDS011;8838;50.144;8.176;2023-04-25T10:14:34;8.15;;;4.50;;
17441;SDS011;8838;50.144;8.176;2023-04-25T10:17:01;14.20;;;4.60;;
17441;SDS011;8838;50.144;8.176;2023-04-25T10:19:29;9.50;;;3.93;;
17441;SDS011;8838;50.144;8.176;2023-04-25T10:21:58;9.97;;;4.00;;
17441;SDS011;8838;50.144;8.176;2023-04-25T10:24:31;12.87;;;5.27;;
17441;SDS011;8838;50.144;8.176;2023-04-25T10:26:59;13.53;;;4.60;;
17441;SDS011;8838;50.144;8.176;2023-04-25T10:29:27;11.77;;;3.73;;
17441;SDS011;8838;50.144;8.176;2023-04-25T10:31:55;10.30;;;4.20;;
17441;SDS011;8838;50.144;8.176;2023-04-25T10:34:24;9.13;;;4.07;;
17441;SDS011;8838;50.144;8.176;2023-04-25T10:37:03;8.33;;;3.83;;
17441;SDS011;8838;50.144;8.176;2023-04-25T10:39:30;8.63;;;3.87;;
17441;SDS011;8838;50.144;8.176;2023-04-25T10:41:59;12.43;;;4.60;;
17441;SDS011;8838;50.144;8.176;2023-04-25T10:44:28;16.17;;;4.40;;
17441;SDS011;8838;50.144;8.176;2023-04-25T10:46:58;11.37;;;4.20;;
17441;SDS011;8838;50.144;8.176;2023-04-25T10:49:28;8.53;;;3.90;;
17441;SDS011;8838;50.144;8.176;2023-04-25T10:52:19;12.83;;;4.40;;
17441;SDS011;8838;50.144;8.176;2023-04-25T10:54:52;11.07;;;3.83;;
17441;SDS011;8838;50.144;8.176;2023-04-25T10:57:30;11.13;;;4.53;;
17441;SDS011;8838;50.144;8.176;2023-04-25T11:00:04;11.30;;;3.80;;
17441;SDS011;8838;50.144;8.176;2023-04-25T11:02:38;10.60;;;3.40;;
17441;SDS011;8838;50.144;8.176;2023-04-25T11:05:08;8.77;;;3.33;;
17441;SDS011;8838;50.144;8.176;2023-04-25T11:07:37;9.83;;;3.20;;
17441;SDS011;8838;50.144;8.176;2023-04-25T11:10:09;10.40;;;3.60;;
17441;SDS011;8838;50.144;8.176;2023-04-25T11:12:36;9.87;;;3.30;;
17441;SDS011;8838;50.144;8.176;2023-04-25T11:15:04;8.80;;;3.43;;
17441;SDS011;8838;50.144;8.176;2023-04-25T11:17:32;10.33;;;3.73;;
17441;SDS011;8838;50.144;8.176;2023-04-25T11:20:00;9.53;;;3.17;;
17441;SDS011;8838;50.144;8.176;2023-04-25T11:22:31;10.90;;;4.10;;
17441;SDS011;8838;50.144;8.176;2023-04-25T11:25:00;9.30;;;3.80;;
17441;SDS011;8838;50.144;8.176;2023-04-25T11:27:31;12.53;;;3.60;;
17441;SDS011;8838;50.144;8.176;2023-04-25T11:29:58;11.53;;;3.83;;
17441;SDS011;8838;50.144;8.176;2023-04-25T11:32:25;13.03;;;4.47;;
17441;SDS011;8838;50.144;8.176;2023-04-25T11:34:52;10.53;;;3.50;;
17441;SDS011;8838;50.144;8.176;2023-04-25T11:37:21;9.97;;;3.60;;
17441;SDS011;8838;50.144;8.176;2023-04-25T11:39:48;10.20;;;3.80;;
17441;SDS011;8838;50.144;8.176;2023-04-25T11:42:15;15.03;;;3.40;;
17441;SDS011;8838;50.144;8.176;2023-04-25T11:44:41;9.67;;;3.60;;
17441;SDS011;8838;50.144;8.176;2023-04-25T11:47:09;10.03;;;3.80;;
17441;SDS011;8838;50.144;8.176;2023-04-25T11:49:36;11.00;;;3.03;;
17441;SDS011;8838;50.144;8.176;2023-04-25T11:52:03;13.27;;;3.63;;
17441;SDS011;8838;50.144;8.176;2023-04-25T11:54:36;12.90;;;4.40;;
17441;SDS011;8838;50.144;8.176;2023-04-25T11:57:03;12.63;;;5.78;;
17441;SDS011;8838;50.144;8.176;2023-04-25T11:59:30;5.90;;;3.07;;
17441;SDS011;8838;50.144;8.176;2023-04-25T12:01:57;9.40;;;3.40;;
17441;SDS011;8838;50.144;8.176;2023-04-25T12:04:26;9.55;;;3.00;;
17441;SDS011;8838;50.144;8.176;2023-04-25T12:06:58;6.90;;;2.63;;
17441;SDS011;8838;50.144;8.176;2023-04-25T12:09:29;10.90;;;3.67;;
17441;SDS011;8838;50.144;8.176;2023-04-25T12:11:59;11.07;;;3.13;;
17441;SDS011;8838;50.144;8.176;2023-04-25T12:14:28;8.90;;;3.15;;
17441;SDS011;8838;50.144;8.176;2023-04-25T12:16:56;6.38;;;2.92;;
17441;SDS011;8838;50.144;8.176;2023-04-25T12:19:24;7.13;;;3.23;;
17441;SDS011;8838;50.144;8.176;2023-04-25T12:21:52;10.17;;;2.90;;
17441;SDS011;8838;50.144;8.176;2023-04-25T12:24:21;7.70;;;3.57;;
17441;SDS011;8838;50.144;8.176;2023-04-25T12:26:51;10.93;;;2.80;;
17441;SDS011;8838;50.144;8.176;2023-04-25T12:29:21;10.13;;;3.17;;
17441;SDS011;8838;50.144;8.176;2023-04-25T12:31:49;6.57;;;2.90;;
17441;SDS011;8838;50.144;8.176;2023-04-25T12:34:17;8.77;;;2.83;;
17441;SDS011;8838;50.144;8.176;2023-04-25T12:36:45;9.87;;;3.10;;
17441;SDS011;8838;50.144;8.176;2023-04-25T12:39:15;10.00;;;3.00;;
17441;SDS011;8838;50.144;8.176;2023-04-25T12:41:42;11.47;;;3.10;;
17441;SDS011;8838;50.144;8.176;2023-04-25T12:44:10;10.00;;;3.70;;
17441;SDS011;8838;50.144;8.176;2023-04-25T12:46:38;12.70;;;3.50;;
17441;SDS011;8838;50.144;8.176;2023-04-25T12:49:06;12.73;;;3.60;;
17441;SDS011;8838;50.144;8.176;2023-04-25T12:51:33;9.37;;;3.10;;
17441;SDS011;8838;50.144;8.176;2023-04-25T12:54:01;11.33;;;2.87;;
17441;SDS011;8838;50.144;8.176;2023-04-25T12:56:29;10.10;;;2.83;;
17441;SDS011;8838;50.144;8.176;2023-04-25T12:58:56;7.07;;;2.70;;
17441;SDS011;8838;50.144;8.176;2023-04-25T13:01:23;15.38;;;3.45;;
17441;SDS011;8838;50.144;8.176;2023-04-25T13:03:52;9.50;;;3.15;;
17441;SDS011;8838;50.144;8.176;2023-04-25T13:06:19;12.43;;;3.25;;
17441;SDS011;8838;50.144;8.176;2023-04-25T13:08:47;10.02;;;3.15;;
17441;SDS011;8838;50.144;8.176;2023-04-25T13:11:14;7.93;;;3.15;;
17441;SDS011;8838;50.144;8.176;2023-04-25T13:13:41;8.88;;;2.88;;
17441;SDS011;8838;50.144;8.176;2023-04-25T13:16:08;8.10;;;2.97;;
17441;SDS011;8838;50.144;8.176;2023-04-25T13:18:35;12.37;;;3.40;;
17441;SDS011;8838;50.144;8.176;2023-04-25T13:21:03;13.03;;;3.77;;
17441;SDS011;8838;50.144;8.176;2023-04-25T13:23:30;10.13;;;3.30;;
17441;SDS011;8838;50.144;8.176;2023-04-25T13:25:57;8.50;;;2.83;;
17441;SDS011;8838;50.144;8.176;2023-04-25T13:28:26;8.23;;;2.88;;
17441;SDS011;8838;50.144;8.176;2023-04-25T13:30:53;10.23;;;3.25;;
17441;SDS011;8838;50.144;8.176;2023-04-25T13:33:20;10.32;;;3.28;;
17441;SDS011;8838;50.144;8.176;2023-04-25T13:35:47;9.55;;;2.80;;
17441;SDS011;8838;50.144;8.176;2023-04-25T13:38:20;12.38;;;3.60;;
17441;SDS011;8838;50.144;8.176;2023-04-25T13:40:48;10.57;;;3.53;;
17441;SDS011;8838;50.144;8.176;2023-04-25T13:43:17;13.02;;;3.00;;
17441;SDS011;8838;50.144;8.176;2023-04-25T13:45:45;11.37;;;2.77;;
17441;SDS011;8838;50.144;8.176;2023-04-25T13:48:12;12.30;;;2.97;;
17441;SDS011;8838;50.144;8.176;2023-04-25T13:50:39;7.63;;;2.70;;
17441;SDS011;8838;50.144;8.176;2023-04-25T13:53:06;9.07;;;2.67;;
17441;SDS011;8838;50.144;8.176;2023-04-25T13:55:35;11.43;;;2.78;;
17441;SDS011;8838;50.144;8.176;2023-04-25T13:58:02;8.33;;;2.80;;
17441;SDS011;8838;50.144;8.176;2023-04-25T14:00:32;8.57;;;2.83;;
17441;SDS011;8838;50.144;8.176;2023-04-25T14:03:00;8.63;;;2.70;;
17441;SDS011;8838;50.144;8.176;2023-04-25T14:05:29;7.28;;;2.58;;
17441;SDS011;8838;50.144;8.176;2023-04-25T14:07:57;11.95;;;5.32;;
17441;SDS011;8838;50.144;8.176;2023-04-25T14:10:24;10.20;;;2.90;;
17441;SDS011;8838;50.144;8.176;2023-04-25T14:12:53;6.38;;;2.75;;
17441;SDS011;8838;50.144;8.176;2023-04-25T14:15:19;10.15;;;2.90;;
17441;SDS011;8838;50.144;8.176;2023-04-25T14:17:46;10.55;;;3.13;;
17441;SDS011;8838;50.144;8.176;2023-04-25T14:20:14;9.13;;;2.95;;
17441;SDS011;8838;50.144;8.176;2023-04-25T14:22:45;7.57;;;2.72;;
17441;SDS011;8838;50.144;8.176;2023-04-25T14:25:12;7.95;;;2.78;;
17441;SDS011;8838;50.144;8.176;2023-04-25T14:27:39;8.48;;;2.80;;
17441;SDS011;8838;50.144;8.176;2023-04-25T14:30:08;7.50;;;2.90;;
17441;SDS011;8838;50.144;8.176;2023-04-25T14:32:36;8.20;;;3.00;;
17441;SDS011;8838;50.144;8.176;2023-04-25T14:35:04;9.70;;;2.80;;
17441;SDS011;8838;50.144;8.176;2023-04-25T14:37:32;8.40;;;2.77;;
17441;SDS011;8838;50.144;8.176;2023-04-25T14:39:59;11.90;;;2.70;;
17441;SDS011;8838;50.144;8.176;2023-04-25T14:42:26;11.77;;;2.70;;
17441;SDS011;8838;50.144;8.176;2023-04-25T14:44:53;7.73;;;2.57;;
17441;SDS011;8838;50.144;8.176;2023-04-25T14:47:21;9.97;;;2.20;;
17441;SDS011;8838;50.144;8.176;2023-04-25T14:49:48;11.55;;;2.83;;
17441;SDS011;8838;50.144;8.176;2023-04-25T14:52:19;11.43;;;2.85;;